Time;durP1;ratioP1;P1;durP2;ratioP2;P2;SDS_P1;SDS_P2;PMS_P1;PMS_P2;Temp;Humidity;BMP_temperature;BMP_pressure;BME280_temperature;BME280_humidity;BME280_pressure;Samples;Min_cycle;Max_cycle;Signal;HPM_P1;HPM_P2
2023/10/06 00:00:09;;;;;;;;;;;;;;;17.88;48.28;94518.13;4954323;28;20384;-72
2023/10/06 00:02:34;;;;;;;;;;;;;;;17.83;48.24;94526.44;4953779;28;19929;-72
2023/10/06 00:05:00;;;;;;;;;;;;;;;17.83;48.20;94526.44;4953956;28;19926;-72
2023/10/06 00:07:26;;;;;;;;;;;;;;;17.84;47.85;94524.53;4958997;28;20332;-72
2023/10/06 00:09:53;;;;;;;;;;;;;;;17.82;48.26;94522.19;4956001;28;19918;-72
2023/10/06 00:12:19;;;;;;;;;;;;;;;17.77;48.35;94517.03;4951887;28;19914;-72
2023/10/06 00:14:48;;;;;;;;;;;;;;;17.75;48.23;94508.53;4952892;28;19960;-72
2023/10/06 00:17:17;;;;;;;;;;;;;;;17.72;48.25;94506.53;4948262;28;20392;-71
2023/10/06 00:19:43;;;;;;;;;;;;;;;17.69;48.37;94501.84;4949621;28;19922;-72
2023/10/06 00:24:36;;;;;;;;;;;;;;;17.73;48.15;94504.63;4951955;28;20305;-72
2023/10/06 00:27:03;;;;;;;;;;;;;;;17.72;48.37;94503.03;4956291;28;20390;-70
2023/10/06 00:29:29;;;;;;;;;;;;;;;17.71;48.34;94507.63;4954852;28;20751;-70
2023/10/06 00:32:00;;;;;;;;;;;;;;;17.73;48.12;94499.25;4954496;28;19921;-69
2023/10/06 00:34:30;;;;;;;;;;;;;;;17.71;48.16;94501.47;4958613;28;19925;-71
2023/10/06 00:36:56;;;;;;;;;;;;;;;17.69;47.98;94501.84;4952673;28;21771;-69
2023/10/06 00:39:25;;;;;;;;;;;;;;;17.68;48.04;94508.34;4957455;28;19914;-71
2023/10/06 00:42:04;;;;;;;;;;;;;;;17.69;47.99;94504.53;4955442;28;20040;-72
2023/10/06 00:44:30;;;;;;;;;;;;;;;17.66;48.13;94507.09;4954055;28;19991;-71
2023/10/06 00:46:59;;;;;;;;;;;;;;;17.61;48.21;94508.13;4955448;28;20167;-70
2023/10/06 00:49:25;;;;;;;;;;;;;;;17.60;48.20;94511.91;4958465;28;20389;-71
2023/10/06 00:51:53;;;;;;;;;;;;;;;17.62;48.20;94509.69;4955047;28;20544;-71
2023/10/06 00:54:19;;;;;;;;;;;;;;;17.64;48.11;94504.75;4952755;28;19936;-72
2023/10/06 00:56:46;;;;;;;;;;;;;;;17.59;48.33;94500.41;4955485;28;20362;-71
2023/10/06 00:59:12;;;;;;;;;;;;;;;17.57;48.26;94507.22;4952764;28;19929;-71
2023/10/06 01:01:38;;;;;;;;;;;;;;;17.54;48.59;94514.09;4957437;28;19922;-72
2023/10/06 01:04:08;;;;;;;;;;;;;;;17.52;48.52;94520.91;4954187;28;19936;-72
2023/10/06 01:06:35;;;;;;;;;;;;;;;17.47;48.68;94518.47;4955605;28;19918;-72
2023/10/06 01:09:34;;;;;;;;;;;;;;;17.45;48.58;94509.97;4956190;28;19924;-73
2023/10/06 01:11:52;;;;;;;;;;;;;;;17.43;48.57;94514.88;4956233;28;20488;-71
2023/10/06 01:14:21;;;;;;;;;;;;;;;17.44;48.55;94508.38;4954250;28;19957;-72
2023/10/06 01:16:49;;;;;;;;;;;;;;;17.41;48.61;94503.69;4956103;28;20380;-72
2023/10/06 01:19:28;;;;;;;;;;;;;;;17.39;48.62;94509.41;4957609;28;19934;-72
2023/10/06 01:21:57;;;;;;;;;;;;;;;17.40;48.64;94502.91;4953376;28;19929;-72
2023/10/06 01:24:26;;;;;;;;;;;;;;;17.37;48.54;94495.50;4955784;28;20288;-72
2023/10/06 01:27:00;;;;;;;;;;;;;;;17.38;48.60;94499.78;4955323;28;19925;-70
2023/10/06 01:29:31;;;;;;;;;;;;;;;17.37;48.48;94495.50;4949800;28;19918;-72
2023/10/06 01:31:57;;;;;;;;;;;;;;;17.37;48.66;94497.41;4955243;28;19922;-72
2023/10/06 01:34:24;;;;;;;;;;;;;;;17.40;48.48;94507.50;4953457;28;19930;-72
2023/10/06 01:36:52;;;;;;;;;;;;;;;17.34;48.78;94516.91;4956340;28;19914;-70
2023/10/06 01:39:25;;;;;;;;;;;;;;;17.31;48.93;94521.06;4956860;28;19917;-71
2023/10/06 01:41:50;;;;;;;;;;;;;;;17.35;49.27;94519.28;4948780;28;20029;-72
2023/10/06 01:44:16;;;;;;;;;;;;;;;17.34;49.52;94525.00;4954869;28;20300;-73
2023/10/06 01:46:53;;;;;;;;;;;;;;;17.34;50.01;94522.31;4956047;28;19926;-73
2023/10/06 01:49:18;;;;;;;;;;;;;;;17.38;50.13;94520.50;4960795;28;19926;-72
2023/10/06 01:51:44;;;;;;;;;;;;;;;17.32;50.04;94516.47;4951827;28;19961;-69
2023/10/06 01:54:13;;;;;;;;;;;;;;;17.34;49.89;94525.00;4958249;28;19910;-71
2023/10/06 01:56:47;;;;;;;;;;;;;;;17.36;49.78;94528.09;4955001;28;19953;-71
2023/10/06 01:59:16;;;;;;;;;;;;;;;17.37;50.00;94529.69;4955353;28;20432;-73
2023/10/06 02:01:42;;;;;;;;;;;;;;;17.36;49.70;94533.47;4954342;28;19926;-71
2023/10/06 02:04:10;;;;;;;;;;;;;;;17.32;49.63;94532.59;4952989;28;19928;-71
2023/10/06 02:06:36;;;;;;;;;;;;;;;17.08;49.71;94495.75;4955841;28;20146;-70
2023/10/06 02:09:05;;;;;;;;;;;;;;;17.32;49.57;94535.28;4953786;28;20158;-72
2023/10/06 02:11:30;;;;;;;;;;;;;;;17.35;49.58;94526.56;4956332;28;20362;-73
2023/10/06 02:13:56;;;;;;;;;;;;;;;17.40;49.72;94534.41;4960323;28;19922;-70
2023/10/06 02:16:26;;;;;;;;;;;;;;;17.38;49.88;94531.25;4957150;28;19925;-71
2023/10/06 02:18:53;;;;;;;;;;;;;;;17.33;49.88;94534.16;4957251;28;19933;-72
2023/10/06 02:21:24;;;;;;;;;;;;;;;17.36;49.38;94536.16;4961625;28;19959;-72
2023/10/06 02:23:50;;;;;;;;;;;;;;;17.39;49.90;94539.00;4956065;28;19922;-73
2023/10/06 02:26:16;;;;;;;;;;;;;;;17.38;49.72;94544.69;4958443;28;20378;-71
2023/10/06 02:28:43;;;;;;;;;;;;;;;17.35;49.80;94542.69;4958831;28;19928;-72
2023/10/06 02:31:10;;;;;;;;;;;;;;;17.38;50.01;94542.00;4963192;28;20380;-72
2023/10/06 02:33:39;;;;;;;;;;;;;;;17.37;49.94;94551.19;4955898;28;19917;-71
2023/10/06 02:36:18;;;;;;;;;;;;;;;17.38;49.89;94542.00;4958385;28;20024;-70
2023/10/06 02:38:49;;;;;;;;;;;;;;;17.33;49.68;94542.22;4955289;28;19922;-70
2023/10/06 02:41:25;;;;;;;;;;;;;;;17.34;49.89;94546.50;4956592;28;20913;-71
2023/10/06 02:43:55;;;;;;;;;;;;;;;17.38;49.82;94550.06;4960647;28;19922;-71
2023/10/06 02:46:25;;;;;;;;;;;;;;;17.36;49.97;94549.63;4956638;28;20702;-72
2023/10/06 02:48:50;;;;;;;;;;;;;;;17.31;49.85;94553.31;4966025;28;19913;-72
2023/10/06 02:51:47;;;;;;;;;;;;;;;17.34;49.92;94546.50;4957301;28;19918;-69
2023/10/06 02:56:41;;;;;;;;;;;;;;;17.40;49.72;94545.16;4958172;28;19972;-72
2023/10/06 02:59:23;;;;;;;;;;;;;;;17.46;49.17;94543.78;4954974;28;19972;-71
2023/10/06 03:01:54;;;;;;;;;;;;;;;17.52;48.97;94542.44;4959388;28;20557;-72
2023/10/06 03:04:21;;;;;;;;;;;;;;;17.57;48.30;94534.91;4954555;28;19914;-71
2023/10/06 03:06:53;;;;;;;;;;;;;;;17.51;48.35;94541.66;4958682;28;19922;-71
2023/10/06 03:09:18;;;;;;;;;;;;;;;17.51;48.20;94546.25;4959249;28;19914;-72
2023/10/06 03:11:49;;;;;;;;;;;;;;;17.47;48.33;94538.06;4954928;28;19926;-72
2023/10/06 03:14:15;;;;;;;;;;;;;;;17.51;48.22;94543.53;4957769;28;20344;-71
2023/10/06 03:16:42;;;;;;;;;;;;;;;17.48;48.16;94546.94;4956150;28;19918;-72
2023/10/06 03:19:12;;;;;;;;;;;;;;;17.45;47.82;94547.63;4957410;28;19922;-72
2023/10/06 03:21:39;;;;;;;;;;;;;;;17.50;48.21;94553.53;4957192;28;19946;-72
2023/10/06 03:24:06;;;;;;;;;;;;;;;17.46;47.52;94552.63;4959376;28;20180;-73
2023/10/06 03:26:34;;;;;;;;;;;;;;;17.48;47.81;94547.72;4957792;28;20006;-72
2023/10/06 03:29:03;;;;;;;;;;;;;;;17.45;47.38;94548.38;4958261;28;19925;-71
2023/10/06 03:31:46;;;;;;;;;;;;;;;17.42;47.64;94553.66;4957690;28;19918;-72
2023/10/06 03:34:19;;;;;;;;;;;;;;;17.48;47.28;94550.41;4958549;28;19926;-72
2023/10/06 03:37:04;;;;;;;;;;;;;;;17.46;47.27;94552.63;4957670;28;19947;-72
2023/10/06 03:39:31;;;;;;;;;;;;;;;17.45;47.08;94558.38;4956365;28;20483;-72
2023/10/06 03:42:00;;;;;;;;;;;;;;;17.40;47.29;94554.00;4959389;28;19980;-72
2023/10/06 03:44:26;;;;;;;;;;;;;;;17.48;47.04;94549.63;4956911;28;20289;-72
2023/10/06 03:46:53;;;;;;;;;;;;;;;17.36;47.19;94549.63;4954416;28;20381;-70
2023/10/06 03:49:18;;;;;;;;;;;;;;;17.31;47.56;94553.31;4954988;28;19918;-71
2023/10/06 03:51:44;;;;;;;;;;;;;;;17.35;47.08;94550.75;4957960;28;19929;-69
2023/10/06 03:54:10;;;;;;;;;;;;;;;17.25;47.29;94557.38;4955347;28;19992;-72
2023/10/06 03:56:35;;;;;;;;;;;;;;;17.13;47.48;94550.09;4958212;28;20065;-73
2023/10/06 03:59:00;;;;;;;;;;;;;;;17.13;47.48;94551.97;4953345;28;20147;-73
2023/10/06 04:01:26;;;;;;;;;;;;;;;17.07;47.38;94554.06;4957220;28;19956;-71
2023/10/06 04:03:58;;;;;;;;;;;;;;;17.15;47.53;94549.75;4956386;28;20141;-72
2023/10/06 04:06:23;;;;;;;;;;;;;;;17.21;47.50;94558.38;4958572;28;20013;-74
2023/10/06 04:08:48;;;;;;;;;;;;;;;17.26;47.39;94556.22;4958486;28;20427;-76
2023/10/06 04:11:14;;;;;;;;;;;;;;;17.31;47.33;94552.53;4957650;28;19979;-72
2023/10/06 04:13:40;;;;;;;;;;;;;;;17.31;47.04;94552.53;4956952;28;19918;-71
2023/10/06 04:16:09;;;;;;;;;;;;;;;17.30;47.15;94550.97;4958557;28;20433;-72
2023/10/06 04:18:34;;;;;;;;;;;;;;;17.27;46.96;94551.63;4955536;28;19933;-71
2023/10/06 04:21:00;;;;;;;;;;;;;;;17.35;46.98;94553.44;4958841;28;19918;-72
2023/10/06 04:23:25;;;;;;;;;;;;;;;17.07;47.49;94569.41;4947134;28;19929;-71
2023/10/06 04:25:54;;;;;;;;;;;;;;;16.98;47.56;94561.47;4952254;28;19929;-71
2023/10/06 04:28:20;;;;;;;;;;;;;;;16.85;47.96;94564.47;4957174;28;20192;-70
2023/10/06 04:30:46;;;;;;;;;;;;;;;16.79;48.17;94569.28;4958937;28;19914;-69
2023/10/06 04:33:12;;;;;;;;;;;;;;;16.84;48.28;94566.38;4955224;28;19918;-72
2023/10/06 04:35:40;;;;;;;;;;;;;;;16.52;48.67;94564.53;4956762;28;19949;-73
2023/10/06 04:38:06;;;;;;;;;;;;;;;16.51;49.32;94569.13;4953349;28;20431;-72
2023/10/06 04:40:32;;;;;;;;;;;;;;;16.14;49.41;94543.22;4956515;28;19922;-71
2023/10/06 04:42:58;;;;;;;;;;;;;;;16.39;49.38;94577.13;4953744;28;20322;-72
2023/10/06 04:45:27;;;;;;;;;;;;;;;16.28;49.83;94579.41;4957138;28;20001;-72
2023/10/06 04:47:55;;;;;;;;;;;;;;;16.33;49.79;94580.38;4953284;28;19948;-71
2023/10/06 04:50:21;;;;;;;;;;;;;;;16.33;49.77;94579.22;4958774;28;20402;-72
2023/10/06 04:52:46;;;;;;;;;;;;;;;16.44;49.96;94584.19;4954465;28;19926;-71
2023/10/06 04:55:13;;;;;;;;;;;;;;;16.56;49.48;94576.19;4956341;28;20397;-72
2023/10/06 04:57:39;;;;;;;;;;;;;;;16.72;49.10;94588.63;4955557;28;19922;-72
2023/10/06 05:00:13;;;;;;;;;;;;;;;16.71;48.82;94589.75;4956257;28;19918;-71
2023/10/06 05:02:38;;;;;;;;;;;;;;;16.54;49.37;94599.88;4956240;28;19918;-71
2023/10/06 05:05:05;;;;;;;;;;;;;;;16.52;49.71;94602.91;4955256;28;20300;-72
2023/10/06 05:07:31;;;;;;;;;;;;;;;16.59;49.56;94605.84;4946512;28;19937;-72
2023/10/06 05:09:56;;;;;;;;;;;;;;;16.55;50.15;94612.19;4957990;28;20566;-72
2023/10/06 05:12:23;;;;;;;;;;;;;;;16.59;50.29;94605.06;4953818;28;20195;-69
2023/10/06 05:14:49;;;;;;;;;;;;;;;16.74;50.12;94607.09;4956737;28;20441;-72
2023/10/06 05:17:16;;;;;;;;;;;;;;;16.86;50.53;94612.53;4954906;28;20301;-71
2023/10/06 05:19:42;;;;;;;;;;;;;;;16.98;49.74;94615.22;4956381;28;19921;-71
2023/10/06 05:22:07;;;;;;;;;;;;;;;17.05;49.12;94614.69;4952973;28;19922;-71
2023/10/06 05:24:32;;;;;;;;;;;;;;;17.05;49.17;94612.78;4957211;28;20006;-70
2023/10/06 05:26:58;;;;;;;;;;;;;;;17.18;49.16;94625.13;4950205;28;19918;-72
2023/10/06 05:29:25;;;;;;;;;;;;;;;17.29;49.01;94622.00;4955529;28;19928;-72
2023/10/06 05:31:50;;;;;;;;;;;;;;;17.20;48.88;94621.31;4954834;28;19922;-72
2023/10/06 05:34:17;;;;;;;;;;;;;;;17.28;48.43;94617.72;4954324;28;19922;-71
2023/10/06 05:36:43;;;;;;;;;;;;;;;17.25;48.43;94619.22;4950982;28;19926;-73
2023/10/06 05:39:11;;;;;;;;;;;;;;;17.29;48.27;94635.44;4955233;28;19914;-71
2023/10/06 05:41:37;;;;;;;;;;;;;;;17.26;48.45;94636.13;4953325;28;19930;-71
2023/10/06 05:44:02;;;;;;;;;;;;;;;17.24;48.46;94639.13;4953207;28;20003;-72
2023/10/06 05:46:27;;;;;;;;;;;;;;;17.13;48.42;94636.09;4957631;28;19971;-71
2023/10/06 05:48:53;;;;;;;;;;;;;;;16.99;48.70;94632.91;4960975;28;20356;-72
2023/10/06 05:51:21;;;;;;;;;;;;;;;16.90;48.93;94637.59;4956134;28;19963;-72
2023/10/06 05:53:48;;;;;;;;;;;;;;;16.79;49.04;94641.81;4954666;28;20032;-72
2023/10/06 05:56:15;;;;;;;;;;;;;;;16.85;48.87;94647.78;4943240;28;20001;-72
2023/10/06 05:58:43;;;;;;;;;;;;;;;17.04;48.92;94639.97;4957560;28;19923;-71
2023/10/06 06:01:13;;;;;;;;;;;;;;;17.00;48.76;94645.22;4956072;28;19925;-72
2023/10/06 06:03:39;;;;;;;;;;;;;;;17.04;48.76;94648.81;4958265;28;19921;-72
2023/10/06 06:06:08;;;;;;;;;;;;;;;16.99;48.89;94646.34;4970170;28;19922;-73
2023/10/06 06:08:34;;;;;;;;;;;;;;;17.05;49.18;94649.59;4956491;28;19918;-72
2023/10/06 06:10:59;;;;;;;;;;;;;;;17.09;49.20;94653.19;4957645;28;20290;-72
2023/10/06 06:13:25;;;;;;;;;;;;;;;17.23;48.94;94655.59;4957244;28;19918;-72
2023/10/06 06:15:50;;;;;;;;;;;;;;;17.15;49.20;94657.28;4957366;28;20400;-72
2023/10/06 06:18:15;;;;;;;;;;;;;;;17.27;48.70;94661.88;4956005;28;20262;-72
2023/10/06 06:20:41;;;;;;;;;;;;;;;17.22;49.10;94662.88;4958782;28;20029;-72
2023/10/06 06:23:09;;;;;;;;;;;;;;;17.11;49.38;94657.09;4955812;28;19918;-72
2023/10/06 06:25:42;;;;;;;;;;;;;;;17.24;49.23;94659.84;4964730;28;19933;-71
2023/10/06 06:28:08;;;;;;;;;;;;;;;17.23;49.26;94663.66;4956738;28;20000;-71
2023/10/06 06:30:39;;;;;;;;;;;;;;;17.18;49.21;94668.13;4961219;28;19910;-72
2023/10/06 06:33:07;;;;;;;;;;;;;;;17.15;49.00;94663.44;4954594;28;20310;-71
2023/10/06 06:35:35;;;;;;;;;;;;;;;16.98;49.70;94668.97;4962540;28;19933;-72
2023/10/06 06:38:01;;;;;;;;;;;;;;;16.94;50.11;94662.69;4957109;28;19922;-70
2023/10/06 06:40:28;;;;;;;;;;;;;;;16.97;50.08;94671.97;4957695;28;19941;-72
2023/10/06 06:42:55;;;;;;;;;;;;;;;16.93;50.17;94677.22;4959970;28;20561;-72
2023/10/06 06:45:21;;;;;;;;;;;;;;;16.92;50.35;94674.88;4955461;28;19918;-72
2023/10/06 06:47:46;;;;;;;;;;;;;;;16.86;50.72;94685.06;4957941;28;19918;-72
2023/10/06 06:50:13;;;;;;;;;;;;;;;16.77;50.76;94684.34;4955217;28;19929;-73
2023/10/06 06:52:39;;;;;;;;;;;;;;;16.67;51.16;94685.53;4957380;28;19987;-73
2023/10/06 06:55:12;;;;;;;;;;;;;;;16.50;51.51;94690.28;4955790;28;19952;-71
2023/10/06 06:57:37;;;;;;;;;;;;;;;16.57;51.35;94685.97;4958055;28;20015;-73
2023/10/06 07:00:09;;;;;;;;;;;;;;;16.65;51.75;94692.34;4959193;28;19922;-73
2023/10/06 07:02:34;;;;;;;;;;;;;;;16.49;51.78;94688.69;4957749;28;19948;-73
2023/10/06 07:04:59;;;;;;;;;;;;;;;16.42;52.44;94694.63;4952985;28;19918;-72
2023/10/06 07:07:25;;;;;;;;;;;;;;;16.31;52.53;94694.22;4955653;28;20009;-69
2023/10/06 07:09:51;;;;;;;;;;;;;;;16.57;52.47;94695.91;4954344;28;19913;-72
2023/10/06 07:12:18;;;;;;;;;;;;;;;16.70;51.69;94690.25;4955273;28;19914;-72
2023/10/06 07:14:43;;;;;;;;;;;;;;;16.68;51.92;94697.06;4960677;28;19929;-72
2023/10/06 07:17:09;;;;;;;;;;;;;;;16.85;51.47;94688.06;4959966;28;19927;-72
2023/10/06 07:19:34;;;;;;;;;;;;;;;16.87;51.21;94693.88;4957038;28;19969;-72
2023/10/06 07:22:00;;;;;;;;;;;;;;;16.92;51.25;94686.41;4952890;28;19956;-72
2023/10/06 07:24:26;;;;;;;;;;;;;;;17.01;51.32;94683.66;4958154;28;19945;-72
2023/10/06 07:26:52;;;;;;;;;;;;;;;17.08;50.96;94683.88;4956526;28;20427;-71
2023/10/06 07:29:18;;;;;;;;;;;;;;;17.03;50.91;94687.56;4956761;28;19918;-72
2023/10/06 07:31:43;;;;;;;;;;;;;;;17.22;50.42;94679.00;4954051;28;19922;-73
2023/10/06 07:34:08;;;;;;;;;;;;;;;17.27;50.14;94681.47;4953018;28;19929;-72
2023/10/06 07:36:35;;;;;;;;;;;;;;;17.24;50.31;94674.09;4956326;28;20001;-73
2023/10/06 07:39:03;;;;;;;;;;;;;;;17.18;50.40;94684.25;4954873;28;19926;-73
2023/10/06 07:41:29;;;;;;;;;;;;;;;17.26;50.26;94679.91;4957181;28;20488;-72
2023/10/06 07:43:58;;;;;;;;;;;;;;;17.16;50.51;94680.31;4957219;28;19922;-70
2023/10/06 07:46:24;;;;;;;;;;;;;;;17.23;50.38;94675.19;4956117;28;19922;-70
2023/10/06 07:48:50;;;;;;;;;;;;;;;17.15;50.25;94678.78;4955143;28;19918;-68
2023/10/06 07:51:19;;;;;;;;;;;;;;;17.12;50.59;94680.19;4958014;28;19929;-69
2023/10/06 07:53:44;;;;;;;;;;;;;;;17.30;50.15;94674.66;4958596;28;19922;-71
2023/10/06 07:56:11;;;;;;;;;;;;;;;17.50;50.03;94677.22;4952372;28;19955;-71
2023/10/06 07:58:37;;;;;;;;;;;;;;;17.29;50.14;94675.78;4959419;28;19991;-70
2023/10/06 08:01:05;;;;;;;;;;;;;;;17.39;50.11;94676.13;4950772;28;19929;-69
2023/10/06 08:03:32;;;;;;;;;;;;;;;17.47;50.02;94672.53;4956739;28;19914;-70
2023/10/06 08:06:01;;;;;;;;;;;;;;;17.51;49.91;94678.81;4959088;28;19929;-69
2023/10/06 08:08:26;;;;;;;;;;;;;;;17.55;49.80;94682.38;4952150;28;20468;-69
2023/10/06 08:10:52;;;;;;;;;;;;;;;17.48;49.49;94670.63;4957192;28;19922;-70
2023/10/06 08:13:18;;;;;;;;;;;;;;;17.68;49.03;94671.63;4953135;28;20044;-70
2023/10/06 08:15:46;;;;;;;;;;;;;;;17.56;48.54;94673.19;4946510;28;19929;-70
2023/10/06 08:18:12;;;;;;;;;;;;;;;17.72;48.47;94675.22;4955304;28;20212;-70
2023/10/06 08:20:40;;;;;;;;;;;;;;;17.72;48.73;94675.22;4960164;28;19922;-69
2023/10/06 08:23:07;;;;;;;;;;;;;;;17.62;48.95;94673.78;4957666;28;19932;-70
2023/10/06 08:25:32;;;;;;;;;;;;;;;17.83;48.97;94677.13;4959834;28;19933;-70
2023/10/06 08:27:57;;;;;;;;;;;;;;;17.90;47.76;94676.53;4955358;28;19922;-70
2023/10/06 08:30:23;;;;;;;;;;;;;;;17.90;47.68;94685.41;4954032;28;19917;-70
2023/10/06 08:32:52;;;;;;;;;;;;;;;17.91;47.56;94678.91;4949385;28;19922;-70
2023/10/06 08:35:19;;;;;;;;;;;;;;;17.86;47.85;94683.72;4947008;28;20065;-69
2023/10/06 08:38:07;;;;;;;;;;;;;;;17.89;47.98;94685.78;4931220;28;19933;-69
2023/10/06 08:40:36;;;;;;;;;;;;;;;18.00;47.75;94676.91;4944407;28;19976;-69
2023/10/06 08:43:08;;;;;;;;;;;;;;;18.03;48.06;94678.94;4943017;28;19956;-69
2023/10/06 08:45:42;;;;;;;;;;;;;;;18.00;48.18;94679.59;4952336;28;20155;-71
2023/10/06 08:48:11;;;;;;;;;;;;;;;18.09;47.75;94676.00;4946019;28;19918;-71
2023/10/06 08:50:41;;;;;;;;;;;;;;;18.08;46.99;94677.13;4945173;28;19926;-72
2023/10/06 08:53:10;;;;;;;;;;;;;;;18.02;47.37;94674.66;4946424;28;19922;-71
2023/10/06 08:55:38;;;;;;;;;;;;;;;18.11;47.18;94679.13;4937340;28;20235;-70
2023/10/06 08:58:04;;;;;;;;;;;;;;;18.21;47.00;94684.84;4943240;28;20860;-71
2023/10/06 09:00:34;;;;;;;;;;;;;;;18.03;46.79;94675.47;4945642;28;19910;-72
2023/10/06 09:03:08;;;;;;;;;;;;;;;18.09;46.81;94684.09;4944480;28;19922;-71
2023/10/06 09:05:35;;;;;;;;;;;;;;;18.16;46.89;94687.78;4946870;28;20564;-71
2023/10/06 09:08:10;;;;;;;;;;;;;;;18.15;46.69;94670.03;4946796;28;19918;-71
2023/10/06 09:10:37;;;;;;;;;;;;;;;18.31;46.83;94672.81;4944161;28;20003;-68
2023/10/06 09:13:08;;;;;;;;;;;;;;;18.44;46.52;94674.34;4942991;28;19962;-69
2023/10/06 09:15:43;;;;;;;;;;;;;;;18.37;45.96;94676.84;4945275;28;19916;-71
2023/10/06 09:18:20;;;;;;;;;;;;;;;18.45;46.06;94671.31;4945717;28;20086;-68
2023/10/06 09:20:47;;;;;;;;;;;;;;;18.54;46.02;94663.06;4946244;28;19922;-70
2023/10/06 09:23:28;;;;;;;;;;;;;;;18.67;46.56;94663.84;4942858;28;19922;-68
2023/10/06 09:25:55;;;;;;;;;;;;;;;18.74;45.76;94667.53;4949383;28;19922;-68
2023/10/06 09:28:21;;;;;;;;;;;;;;;18.74;45.65;94659.44;4943696;28;19922;-71
2023/10/06 09:30:51;;;;;;;;;;;;;;;18.80;44.93;94666.16;4945197;28;19914;-69
2023/10/06 09:33:18;;;;;;;;;;;;;;;18.80;45.15;94660.75;4945080;28;20427;-69
2023/10/06 09:35:44;;;;;;;;;;;;;;;18.93;45.71;94660.69;4945429;28;19922;-68
2023/10/06 09:38:13;;;;;;;;;;;;;;;18.99;45.15;94662.78;4945825;28;20487;-69
2023/10/06 09:40:45;;;;;;;;;;;;;;;18.92;44.88;94657.19;5026855;28;20450;-69
2023/10/06 09:43:22;;;;;;;;;;;;;;;18.87;45.03;94660.94;4950708;28;19918;-69
2023/10/06 09:45:49;;;;;;;;;;;;;;;19.01;44.87;94660.56;4945025;28;19929;-70
2023/10/06 09:48:20;;;;;;;;;;;;;;;18.85;44.18;94657.03;4932367;28;19964;-70
2023/10/06 09:50:50;;;;;;;;;;;;;;;18.96;44.60;94657.31;4932715;28;20001;-69
2023/10/06 09:53:19;;;;;;;;;;;;;;;18.94;44.31;94656.88;4945424;28;19922;-69
2023/10/06 09:55:45;;;;;;;;;;;;;;;18.88;44.72;94656.34;4939429;28;19926;-68
2023/10/06 09:58:13;;;;;;;;;;;;;;;19.02;44.53;94655.94;4947160;28;19929;-71
2023/10/06 10:00:39;;;;;;;;;;;;;;;19.13;44.50;94654.28;4940856;28;19919;-70
2023/10/06 10:03:05;;;;;;;;;;;;;;;18.93;44.66;94649.91;4944420;28;19928;-70
2023/10/06 10:05:31;;;;;;;;;;;;;;;19.04;44.75;94651.75;4946593;28;20291;-69
2023/10/06 10:07:56;;;;;;;;;;;;;;;19.08;44.55;94657.22;4944725;28;20013;-71
2023/10/06 10:10:22;;;;;;;;;;;;;;;19.16;44.03;94650.91;4925628;28;19929;-68
2023/10/06 10:12:56;;;;;;;;;;;;;;;19.15;44.27;94646.66;4943794;28;19968;-68
2023/10/06 10:15:28;;;;;;;;;;;;;;;19.18;44.11;94644.03;4941372;28;20239;-68
2023/10/06 10:18:13;;;;;;;;;;;;;;;19.24;43.54;94649.94;4944651;28;19949;-71
2023/10/06 10:20:40;;;;;;;;;;;;;;;19.21;43.44;94634.47;4944878;28;20004;-69
2023/10/06 10:23:14;;;;;;;;;;;;;;;19.02;43.50;94639.78;4937103;28;19918;-68
2023/10/06 10:25:39;;;;;;;;;;;;;;;19.11;43.42;94640.38;4931697;28;19925;-68
2023/10/06 10:28:17;;;;;;;;;;;;;;;18.96;43.61;94636.53;4945489;28;19925;-69
2023/10/06 10:30:50;;;;;;;;;;;;;;;19.01;43.27;94622.03;4928393;28;19918;-70
2023/10/06 10:33:20;;;;;;;;;;;;;;;18.98;43.41;94620.78;4939092;28;19922;-70
2023/10/06 10:36:04;;;;;;;;;;;;;;;19.07;43.14;94620.63;4949007;28;19921;-70
2023/10/06 10:38:32;;;;;;;;;;;;;;;18.99;42.86;94616.19;4946840;28;19979;-70
2023/10/06 10:40:58;;;;;;;;;;;;;;;18.99;42.64;94616.19;4948582;28;19922;-69
2023/10/06 10:43:25;;;;;;;;;;;;;;;19.02;42.45;94612.81;4951266;28;20001;-69
2023/10/06 10:45:52;;;;;;;;;;;;;;;19.11;42.23;94610.72;4954624;28;19914;-69
2023/10/06 10:48:18;;;;;;;;;;;;;;;19.06;41.99;94608.28;4955798;28;19945;-70
2023/10/06 10:50:52;;;;;;;;;;;;;;;19.05;42.06;94601.31;4955701;28;19921;-69
2023/10/06 10:53:18;;;;;;;;;;;;;;;19.12;41.73;94596.88;4945617;28;19926;-68
2023/10/06 10:55:43;;;;;;;;;;;;;;;19.19;41.67;94596.28;4957921;28;20337;-69
2023/10/06 10:58:09;;;;;;;;;;;;;;;19.23;41.11;94597.13;4954187;28;19961;-70
2023/10/06 11:00:34;;;;;;;;;;;;;;;19.23;41.49;94602.53;4956984;28;20013;-70
2023/10/06 11:03:00;;;;;;;;;;;;;;;19.11;40.82;94599.94;4950537;28;19922;-70
2023/10/06 11:05:29;;;;;;;;;;;;;;;19.07;40.59;94594.44;4956247;28;20443;-69
2023/10/06 11:07:58;;;;;;;;;;;;;;;19.13;40.81;94597.66;4957418;28;19967;-69
2023/10/06 11:10:24;;;;;;;;;;;;;;;19.22;39.55;94588.25;4960063;28;20177;-68
2023/10/06 11:13:08;;;;;;;;;;;;;;;19.01;40.41;94590.47;4957778;28;20448;-70
2023/10/06 11:15:33;;;;;;;;;;;;;;;19.10;39.85;94588.38;4959671;28;19908;-69
2023/10/06 11:17:58;;;;;;;;;;;;;;;19.21;39.77;94583.25;4955121;28;19949;-69
2023/10/06 11:20:27;;;;;;;;;;;;;;;19.30;39.76;94575.75;4956842;28;19984;-69
2023/10/06 11:22:59;;;;;;;;;;;;;;;19.40;39.63;94569.81;4953685;28;19922;-70
2023/10/06 11:25:30;;;;;;;;;;;;;;;19.40;39.07;94569.03;4952379;28;20008;-69
2023/10/06 11:28:02;;;;;;;;;;;;;;;19.45;39.50;94574.97;4957420;28;20487;-70
2023/10/06 11:30:35;;;;;;;;;;;;;;;19.58;39.45;94568.34;4956423;28;20451;-71
2023/10/06 11:33:02;;;;;;;;;;;;;;;19.44;38.25;94565.28;4949134;28;20373;-68
2023/10/06 11:35:27;;;;;;;;;;;;;;;19.58;37.98;94565.63;4956399;28;20373;-70
2023/10/06 11:37:53;;;;;;;;;;;;;;;19.61;37.90;94570.31;4945380;28;19922;-71
2023/10/06 11:40:21;;;;;;;;;;;;;;;19.62;37.12;94577.28;4952387;28;19969;-70
2023/10/06 11:42:46;;;;;;;;;;;;;;;19.68;37.08;94570.50;4955269;28;19917;-71
2023/10/06 11:45:24;;;;;;;;;;;;;;;19.69;36.50;94569.38;4955672;28;19914;-70
2023/10/06 11:47:51;;;;;;;;;;;;;;;19.67;36.08;94571.63;4954659;28;19925;-71
2023/10/06 11:50:28;;;;;;;;;;;;;;;19.67;35.92;94568.91;4958284;28;20444;-70
2023/10/06 11:52:53;;;;;;;;;;;;;;;19.73;36.74;94574.81;4956848;28;19921;-70
2023/10/06 11:55:37;;;;;;;;;;;;;;;19.84;36.30;94567.75;4949737;28;19930;-70
2023/10/06 11:58:06;;;;;;;;;;;;;;;19.96;35.66;94577.63;4950666;28;19930;-71
2023/10/06 12:00:36;;;;;;;;;;;;;;;20.04;36.03;94573.94;4954369;28;19921;-70
2023/10/06 12:03:03;;;;;;;;;;;;;;;20.07;35.38;94570.53;4952094;28;20017;-71
2023/10/06 12:05:28;;;;;;;;;;;;;;;20.07;35.81;94575.94;4955731;28;19976;-69
2023/10/06 12:07:59;;;;;;;;;;;;;;;20.07;34.66;94575.94;4953169;28;20274;-71
2023/10/06 12:10:25;;;;;;;;;;;;;;;20.16;35.00;94590.00;4953450;28;19930;-70
2023/10/06 12:12:51;;;;;;;;;;;;;;;20.17;34.78;94583.50;4958444;28;19914;-71
2023/10/06 12:15:17;;;;;;;;;;;;;;;20.24;33.91;94575.53;4952353;28;19924;-71
2023/10/06 12:17:43;;;;;;;;;;;;;;;20.24;34.03;94583.63;4955611;28;19928;-70
2023/10/06 12:20:16;;;;;;;;;;;;;;;20.21;33.77;94587.06;4955469;28;20305;-70
2023/10/06 12:22:45;;;;;;;;;;;;;;;20.20;33.88;94590.88;4953835;28;20021;-69
2023/10/06 12:25:12;;;;;;;;;;;;;;;20.10;33.97;94586.00;4951808;28;20351;-70
2023/10/06 12:27:40;;;;;;;;;;;;;;;20.12;34.50;94591.84;4954130;28;19914;-70
2023/10/06 12:30:06;;;;;;;;;;;;;;;20.01;34.14;94582.75;4954235;28;20008;-70
2023/10/06 12:32:32;;;;;;;;;;;;;;;20.00;34.17;94578.47;4952228;28;19922;-69
2023/10/06 12:34:59;;;;;;;;;;;;;;;20.08;33.95;94586.38;4955922;28;19975;-71
2023/10/06 12:37:25;;;;;;;;;;;;;;;20.11;34.25;94585.66;4955004;28;19933;-70
2023/10/06 12:39:51;;;;;;;;;;;;;;;20.04;33.53;94582.06;4954664;28;19914;-70
2023/10/06 12:42:17;;;;;;;;;;;;;;;19.97;33.88;94579.97;4953768;28;19922;-70
2023/10/06 12:44:42;;;;;;;;;;;;;;;19.98;34.48;94580.75;4956675;28;19936;-70
2023/10/06 12:47:10;;;;;;;;;;;;;;;20.03;34.50;94581.28;4959308;28;20295;-71
2023/10/06 12:49:36;;;;;;;;;;;;;;;20.09;34.31;94584.47;4955383;28;19922;-70
2023/10/06 12:52:02;;;;;;;;;;;;;;;20.16;33.70;94581.91;4968711;28;19969;-70
2023/10/06 12:54:29;;;;;;;;;;;;;;;20.20;33.87;94580.09;4954673;28;20425;-70
2023/10/06 12:56:55;;;;;;;;;;;;;;;20.14;33.78;94571.44;4952841;28;19927;-69